Time;durP1;ratioP1;P1;durP2;ratioP2;P2;SDS_P1;SDS_P2;PMS_P1;PMS_P2;Temp;Humidity;BMP_temperature;BMP_pressure;BME280_temperature;BME280_humidity;BME280_pressure;Samples;Min_cycle;Max_cycle;Signal;HPM_P1;HPM_P2
2023/05/31 00:00:00;;;;;;;;;;;;;;;21.02;54.85;99791.28;4428324;32;34315;-79
2023/05/31 00:02:32;;;;;;;;;;;;;;;21.21;54.14;99780.53;4431879;32;33948;-80
2023/05/31 00:05:01;;;;;;;;;;;;;;;21.05;54.36;99787.63;4431841;32;33490;-80
2023/05/31 00:07:30;;;;;;;;;;;;;;;21.16;54.05;99785.22;4432010;32;34112;-79
2023/05/31 00:09:59;;;;;;;;;;;;;;;20.85;53.48;99786.94;4436976;32;35127;-81
2023/05/31 00:12:29;;;;;;;;;;;;;;;20.76;54.39;99784.78;4431910;32;34753;-84
2023/05/31 00:14:58;;;;;;;;;;;;;;;20.46;53.81;99784.59;4431669;32;32916;-80
2023/05/31 00:17:29;;;;;;;;;;;;;;;20.69;52.58;99785.19;4432703;32;33709;-82
2023/05/31 00:20:18;;;;;;;;;;;;;;;20.56;51.31;99783.22;4433669;32;34723;-79
2023/05/31 00:22:47;;;;;;;;;;;;;;;20.66;49.99;99783.59;4437432;32;33665;-82
2023/05/31 00:25:15;;;;;;;;;;;;;;;20.40;51.55;99777.00;4431761;32;33703;-79
2023/05/31 00:27:46;;;;;;;;;;;;;;;20.66;50.54;99776.53;4428745;32;33494;-80
2023/05/31 00:30:16;;;;;;;;;;;;;;;20.44;50.40;99779.41;4432791;32;33799;-79
2023/05/31 00:32:47;;;;;;;;;;;;;;;20.27;51.23;99775.94;4435589;32;34034;-82
2023/05/31 00:35:16;;;;;;;;;;;;;;;20.42;51.22;99773.37;4432209;32;34098;-81
2023/05/31 00:37:44;;;;;;;;;;;;;;;20.15;51.93;99780.03;4432125;32;34445;-79
2023/05/31 00:40:13;;;;;;;;;;;;;;;20.13;51.77;99774.88;4435989;32;34131;-84
2023/05/31 00:42:42;;;;;;;;;;;;;;;19.87;51.76;99778.81;4432877;32;34551;-83
2023/05/31 00:45:14;;;;;;;;;;;;;;;20.11;50.99;99776.72;4436922;32;33324;-79
2023/05/31 00:47:43;;;;;;;;;;;;;;;20.23;50.20;99780.53;4432863;32;33657;-80
2023/05/31 00:50:12;;;;;;;;;;;;;;;20.50;48.84;99775.59;4430067;32;33789;-80
2023/05/31 00:52:40;;;;;;;;;;;;;;;20.37;48.96;99779.78;4429285;32;34472;-81
2023/05/31 00:55:09;;;;;;;;;;;;;;;20.22;49.14;99776.16;4434433;32;33164;-80
2023/05/31 00:57:39;;;;;;;;;;;;;;;20.58;47.20;99775.22;4427509;32;34744;-82
2023/05/31 01:00:08;;;;;;;;;;;;;;;20.30;48.47;99767.91;4429448;32;33952;-79
2023/05/31 01:02:41;;;;;;;;;;;;;;;19.94;48.52;99771.47;4429708;32;33267;-81
2023/05/31 01:05:09;;;;;;;;;;;;;;;20.61;46.44;99768.00;4436147;32;32981;-83
2023/05/31 01:07:39;;;;;;;;;;;;;;;20.50;47.63;99769.47;4434183;32;34005;-83
2023/05/31 01:10:08;;;;;;;;;;;;;;;20.49;46.78;99762.47;4429921;32;34007;-79
2023/05/31 01:12:39;;;;;;;;;;;;;;;19.82;48.55;99773.78;4432896;32;34448;-80
2023/05/31 01:15:09;;;;;;;;;;;;;;;20.33;47.59;99771.19;4429713;32;34326;-80
2023/05/31 01:17:44;;;;;;;;;;;;;;;20.32;48.83;99769.50;4436426;32;34098;-80
2023/05/31 01:20:15;;;;;;;;;;;;;;;21.00;47.02;99764.13;4428480;32;33747;-79
2023/05/31 01:22:50;;;;;;;;;;;;;;;20.97;47.38;99758.16;4428138;32;33865;-80
2023/05/31 01:25:23;;;;;;;;;;;;;;;21.06;46.47;99760.31;4429792;32;32712;-81
2023/05/31 01:27:55;;;;;;;;;;;;;;;20.89;46.11;99764.72;4429819;32;33855;-81
2023/05/31 01:30:25;;;;;;;;;;;;;;;20.73;47.69;99758.59;4436321;32;36199;-81
2023/05/31 01:32:54;;;;;;;;;;;;;;;20.96;46.51;99761.75;4429434;32;34981;-80
2023/05/31 01:35:22;;;;;;;;;;;;;;;21.26;45.67;99760.06;4430192;32;33715;-81
2023/05/31 01:37:52;;;;;;;;;;;;;;;21.01;47.27;99763.19;4431390;32;33785;-81
2023/05/31 01:40:20;;;;;;;;;;;;;;;20.70;45.66;99756.09;4434121;32;34011;-81
2023/05/31 01:42:49;;;;;;;;;;;;;;;20.30;47.72;99770.53;4432052;32;33794;-79
2023/05/31 01:45:19;;;;;;;;;;;;;;;20.87;45.54;99750.75;4430842;32;32928;-80
2023/05/31 01:47:48;;;;;;;;;;;;;;;21.04;45.78;99759.53;4431491;32;33618;-81
2023/05/31 01:50:18;;;;;;;;;;;;;;;21.05;45.15;99758.63;4430554;32;34115;-80
2023/05/31 01:52:46;;;;;;;;;;;;;;;20.06;46.04;99752.41;4437645;32;34406;-83
2023/05/31 01:55:15;;;;;;;;;;;;;;;20.17;45.45;99751.84;4430967;32;33379;-81
2023/05/31 01:57:44;;;;;;;;;;;;;;;19.94;45.63;99764.44;4430758;32;34097;-80
2023/05/31 02:00:14;;;;;;;;;;;;;;;20.42;45.16;99754.91;4431333;32;33576;-80
2023/05/31 02:02:47;;;;;;;;;;;;;;;19.83;46.44;99748.31;4436883;32;33478;-81
2023/05/31 02:05:17;;;;;;;;;;;;;;;19.57;47.10;99757.47;4431178;32;33602;-80
2023/05/31 02:07:47;;;;;;;;;;;;;;;20.00;45.86;99756.19;4430607;32;33556;-82
2023/05/31 02:10:17;;;;;;;;;;;;;;;19.87;46.20;99756.91;4430375;32;33245;-81
2023/05/31 02:12:50;;;;;;;;;;;;;;;19.54;47.30;99762.88;4431307;32;34376;-81
2023/05/31 02:15:23;;;;;;;;;;;;;;;19.90;46.55;99757.59;4435745;32;33545;-81
2023/05/31 02:17:53;;;;;;;;;;;;;;;19.38;47.90;99765.44;4431187;32;34034;-80
2023/05/31 02:20:24;;;;;;;;;;;;;;;19.71;46.85;99772.63;4430597;32;34936;-80
2023/05/31 02:22:53;;;;;;;;;;;;;;;19.75;46.81;99768.91;4430549;32;34558;-81
2023/05/31 02:25:22;;;;;;;;;;;;;;;19.97;46.00;99769.53;4436247;32;34172;-79
2023/05/31 02:27:51;;;;;;;;;;;;;;;19.66;46.91;99766.69;4430775;32;34831;-80
2023/05/31 02:30:19;;;;;;;;;;;;;;;20.12;45.77;99765.25;4431005;32;34553;-79
2023/05/31 02:32:49;;;;;;;;;;;;;;;19.90;46.23;99772.56;4430531;32;35061;-81
2023/05/31 02:35:18;;;;;;;;;;;;;;;20.30;45.82;99768.75;4431349;32;32974;-80
2023/05/31 02:37:49;;;;;;;;;;;;;;;20.37;45.72;99777.16;4435006;32;32147;-81
2023/05/31 02:40:18;;;;;;;;;;;;;;;20.42;45.60;99776.00;4435964;32;34951;-82
2023/05/31 02:42:47;;;;;;;;;;;;;;;20.35;45.65;99773.78;4438088;32;34962;-81
2023/05/31 02:45:16;;;;;;;;;;;;;;;20.30;45.73;99779.28;4428816;32;33438;-80
2023/05/31 02:47:45;;;;;;;;;;;;;;;19.78;46.84;99777.50;4435801;32;33709;-82
2023/05/31 02:50:15;;;;;;;;;;;;;;;20.26;45.85;99775.09;4425959;32;33645;-81
2023/05/31 02:52:46;;;;;;;;;;;;;;;20.25;45.59;99786.56;4425967;32;34992;-80
2023/05/31 02:55:15;;;;;;;;;;;;;;;20.02;46.58;99785.09;4428876;32;32251;-82
2023/05/31 02:57:44;;;;;;;;;;;;;;;20.30;45.63;99781.91;4437743;32;34608;-81
2023/05/31 03:00:14;;;;;;;;;;;;;;;20.11;45.96;99782.00;4422625;32;34258;-82
2023/05/31 03:02:43;;;;;;;;;;;;;;;19.60;46.89;99783.66;4429714;32;34759;-79
2023/05/31 03:05:13;;;;;;;;;;;;;;;20.04;45.81;99791.16;4430152;32;33139;-81
2023/05/31 03:07:42;;;;;;;;;;;;;;;19.96;45.60;99791.53;4431871;32;33993;-80
2023/05/31 03:10:12;;;;;;;;;;;;;;;19.80;46.10;99790.59;4434782;32;34258;-81
2023/05/31 03:12:41;;;;;;;;;;;;;;;19.62;47.13;99787.91;4427560;32;36087;-80
2023/05/31 03:15:10;;;;;;;;;;;;;;;19.86;46.30;99797.31;4397001;32;1106662;-80
2023/05/31 03:17:39;;;;;;;;;;;;;;;19.76;46.75;99787.25;4433374;32;33712;-82
2023/05/31 03:20:09;;;;;;;;;;;;;;;19.57;46.67;99789.03;4434210;32;33919;-81
2023/05/31 03:22:40;;;;;;;;;;;;;;;19.78;46.15;99795.91;4428751;32;34836;-83
2023/05/31 03:25:09;;;;;;;;;;;;;;;19.41;47.12;99802.09;4427824;32;33624;-79
2023/05/31 03:27:39;;;;;;;;;;;;;;;19.49;46.80;99805.22;4430081;32;34826;-80
2023/05/31 03:30:09;;;;;;;;;;;;;;;19.50;46.84;99806.94;4427578;32;34156;-82
2023/05/31 03:32:41;;;;;;;;;;;;;;;19.72;46.40;99798.03;4428364;32;33478;-80
2023/05/31 03:35:10;;;;;;;;;;;;;;;19.79;46.50;99802.91;4427933;32;33645;-79
2023/05/31 03:37:38;;;;;;;;;;;;;;;19.27;47.78;99812.44;4430361;32;34520;-82
2023/05/31 03:40:08;;;;;;;;;;;;;;;19.97;46.28;99803.75;4428851;32;35065;-81
2023/05/31 03:42:39;;;;;;;;;;;;;;;19.46;47.07;99810.63;4434978;32;34229;-81
2023/05/31 03:45:10;;;;;;;;;;;;;;;19.29;47.48;99815.84;4427748;32;33679;-80
2023/05/31 03:47:38;;;;;;;;;;;;;;;19.75;46.64;99800.50;4429207;32;33578;-82
2023/05/31 03:50:07;;;;;;;;;;;;;;;19.93;46.46;99810.09;4429006;32;34957;-81
2023/05/31 03:52:37;;;;;;;;;;;;;;;19.82;46.47;99812.44;4428358;32;34626;-80
2023/05/31 03:55:06;;;;;;;;;;;;;;;19.66;46.64;99806.19;4434117;32;34172;-79
2023/05/31 03:57:35;;;;;;;;;;;;;;;20.06;46.01;99806.88;4427309;32;33916;-80
2023/05/31 04:00:06;;;;;;;;;;;;;;;20.47;44.67;99804.75;4428548;32;34654;-80
2023/05/31 04:02:40;;;;;;;;;;;;;;;19.81;45.71;99810.72;4431617;32;33874;-80
2023/05/31 04:05:24;;;;;;;;;;;;;;;19.47;47.07;99822.00;4428485;32;33348;-80
2023/05/31 04:07:52;;;;;;;;;;;;;;;19.99;46.29;99816.88;4433074;32;33793;-82
2023/05/31 04:10:21;;;;;;;;;;;;;;;19.95;45.92;99826.69;4430322;32;33887;-80
2023/05/31 04:12:50;;;;;;;;;;;;;;;19.53;47.35;99832.25;4428148;32;34777;-79
2023/05/31 04:15:21;;;;;;;;;;;;;;;19.71;46.33;99835.78;4431439;32;33196;-79
2023/05/31 04:17:51;;;;;;;;;;;;;;;19.69;47.28;99829.75;4433208;32;34758;-82
2023/05/31 04:20:20;;;;;;;;;;;;;;;19.66;47.15;99832.50;4422231;32;35355;-82
2023/05/31 04:22:49;;;;;;;;;;;;;;;19.97;46.38;99831.88;4426512;32;33581;-81
2023/05/31 04:25:17;;;;;;;;;;;;;;;20.08;46.29;99829.56;4428195;32;34203;-82
2023/05/31 04:27:49;;;;;;;;;;;;;;;20.14;46.05;99829.25;4429049;32;33583;-81
2023/05/31 04:30:18;;;;;;;;;;;;;;;20.02;46.11;99832.50;4432896;32;34937;-81
2023/05/31 04:32:51;;;;;;;;;;;;;;;19.47;47.21;99837.78;4425400;32;34673;-79
2023/05/31 04:35:22;;;;;;;;;;;;;;;20.16;46.31;99834.44;4427248;32;33065;-79
2023/05/31 04:37:52;;;;;;;;;;;;;;;20.11;46.50;99839.09;4429810;32;34087;-81
2023/05/31 04:40:22;;;;;;;;;;;;;;;20.17;45.89;99833.50;4438196;32;34335;-79
2023/05/31 04:42:51;;;;;;;;;;;;;;;20.59;45.18;99833.13;4427074;32;34221;-80
2023/05/31 04:45:20;;;;;;;;;;;;;;;20.43;45.03;99833.03;4433154;32;33250;-81
2023/05/31 04:47:50;;;;;;;;;;;;;;;20.35;45.65;99837.00;4431400;32;34567;-80
2023/05/31 04:50:19;;;;;;;;;;;;;;;20.06;45.76;99833.22;4432597;32;34464;-80
2023/05/31 04:52:48;;;;;;;;;;;;;;;20.10;45.20;99837.38;4436609;32;34461;-82
2023/05/31 04:55:17;;;;;;;;;;;;;;;20.46;44.52;99834.66;4431279;32;34104;-80
2023/05/31 04:57:46;;;;;;;;;;;;;;;20.42;45.12;99836.59;4431494;32;33914;-81
2023/05/31 05:00:16;;;;;;;;;;;;;;;20.37;45.40;99838.63;4431531;32;33949;-80
2023/05/31 05:02:45;;;;;;;;;;;;;;;20.23;44.97;99843.75;4436714;32;33995;-81
2023/05/31 05:05:17;;;;;;;;;;;;;;;19.96;45.52;99844.19;4430895;32;33820;-79
2023/05/31 05:07:47;;;;;;;;;;;;;;;20.43;45.27;99845.34;4430591;32;34888;-80
2023/05/31 05:10:16;;;;;;;;;;;;;;;20.53;45.52;99848.37;4431033;32;33710;-80
2023/05/31 05:12:44;;;;;;;;;;;;;;;20.34;45.17;99854.56;4436828;32;34117;-80
2023/05/31 05:15:13;;;;;;;;;;;;;;;20.02;45.81;99851.78;4433065;32;34311;-81
2023/05/31 05:17:45;;;;;;;;;;;;;;;20.64;44.58;99851.34;4430107;32;33905;-81
2023/05/31 05:20:14;;;;;;;;;;;;;;;20.60;44.38;99850.63;4430121;32;34692;-80
2023/05/31 05:22:50;;;;;;;;;;;;;;;20.30;44.97;99853.03;4430212;32;34064;-79
2023/05/31 05:25:20;;;;;;;;;;;;;;;20.46;45.14;99847.81;4434222;32;33139;-80
2023/05/31 05:27:49;;;;;;;;;;;;;;;20.68;44.14;99850.22;4428777;32;33798;-82
2023/05/31 05:30:17;;;;;;;;;;;;;;;20.81;44.26;99850.47;4429526;32;35010;-81
2023/05/31 05:32:48;;;;;;;;;;;;;;;21.08;43.97;99859.50;4431100;32;34221;-80
2023/05/31 05:35:17;;;;;;;;;;;;;;;21.10;44.29;99848.91;4431850;32;32661;-80
2023/05/31 05:37:47;;;;;;;;;;;;;;;21.43;43.92;99853.28;4435123;32;33365;-79
2023/05/31 05:40:16;;;;;;;;;;;;;;;21.28;43.75;99855.78;4429398;32;33621;-80
2023/05/31 05:42:46;;;;;;;;;;;;;;;21.26;43.61;99862.09;4429895;32;34221;-82
2023/05/31 05:45:15;;;;;;;;;;;;;;;20.92;43.56;99858.63;4438569;32;32838;-82
2023/05/31 05:47:45;;;;;;;;;;;;;;;21.23;43.75;99860.47;4427888;32;34766;-80
2023/05/31 05:50:15;;;;;;;;;;;;;;;20.84;44.71;99856.41;4433017;32;33373;-81
2023/05/31 05:52:44;;;;;;;;;;;;;;;21.01;44.91;99857.28;4436675;32;33787;-79
2023/05/31 05:55:14;;;;;;;;;;;;;;;21.85;42.94;99865.84;4435695;32;32078;-82
2023/05/31 05:57:43;;;;;;;;;;;;;;;21.72;43.30;99863.06;4442587;32;32431;-80
2023/05/31 06:00:15;;;;;;;;;;;;;;;22.17;42.30;99858.69;4434594;32;33315;-81
2023/05/31 06:02:46;;;;;;;;;;;;;;;22.07;41.78;99860.19;4430740;32;35127;-81
2023/05/31 06:05:15;;;;;;;;;;;;;;;21.85;42.01;99868.50;4428283;32;33115;-83
2023/05/31 06:07:45;;;;;;;;;;;;;;;21.92;41.59;99869.84;4432386;32;34727;-81
2023/05/31 06:10:16;;;;;;;;;;;;;;;21.65;41.58;99869.63;4437628;32;33954;-80
2023/05/31 06:12:45;;;;;;;;;;;;;;;22.47;41.63;99872.88;4433475;32;34524;-80
2023/05/31 06:15:15;;;;;;;;;;;;;;;22.37;41.38;99872.56;4442547;32;33523;-81
2023/05/31 06:17:48;;;;;;;;;;;;;;;22.15;42.17;99875.59;4446532;32;33421;-81
2023/05/31 06:20:20;;;;;;;;;;;;;;;22.57;41.71;99879.34;4449839;32;35861;-81
2023/05/31 06:22:51;;;;;;;;;;;;;;;22.60;41.50;99878.31;4433313;32;34203;-80
2023/05/31 06:25:23;;;;;;;;;;;;;;;22.49;41.46;99878.91;4434535;32;33208;-81
2023/05/31 06:27:53;;;;;;;;;;;;;;;22.43;41.33;99879.31;4432164;32;33683;-80
2023/05/31 06:30:22;;;;;;;;;;;;;;;22.25;41.98;99882.06;4435207;32;34354;-80
2023/05/31 06:32:51;;;;;;;;;;;;;;;22.71;41.35;99878.47;4439712;32;34543;-81
2023/05/31 06:35:21;;;;;;;;;;;;;;;22.29;41.84;99875.66;4432249;32;33783;-80
2023/05/31 06:37:52;;;;;;;;;;;;;;;22.39;41.31;99881.25;4432520;32;33993;-80
2023/05/31 06:40:21;;;;;;;;;;;;;;;22.39;41.85;99869.84;4432064;32;33636;-80
2023/05/31 06:42:51;;;;;;;;;;;;;;;22.52;41.68;99876.97;4442921;32;35466;-82
2023/05/31 06:45:24;;;;;;;;;;;;;;;22.94;41.32;99882.38;4436167;32;33441;-82
2023/05/31 06:47:55;;;;;;;;;;;;;;;22.36;41.83;99878.81;4429978;32;33176;-80
2023/05/31 06:50:29;;;;;;;;;;;;;;;22.04;41.85;99878.87;4431137;32;33485;-82
2023/05/31 06:53:01;;;;;;;;;;;;;;;22.90;41.21;99880.88;4430107;32;34908;-81
2023/05/31 06:55:30;;;;;;;;;;;;;;;22.51;41.57;99883.16;4437488;32;33489;-80
2023/05/31 06:58:01;;;;;;;;;;;;;;;23.39;40.15;99886.66;4420509;32;34407;-83
2023/05/31 07:00:30;;;;;;;;;;;;;;;23.44;39.63;99886.34;4430468;32;33936;-81
2023/05/31 07:02:59;;;;;;;;;;;;;;;22.53;41.29;99878.66;4434883;32;34331;-80
2023/05/31 07:05:28;;;;;;;;;;;;;;;22.85;40.44;99883.78;4430786;32;34056;-81
2023/05/31 07:07:58;;;;;;;;;;;;;;;22.05;41.97;99893.75;4434818;32;34101;-82
2023/05/31 07:10:28;;;;;;;;;;;;;;;22.42;41.51;99893.44;4429347;32;34237;-80
2023/05/31 07:12:56;;;;;;;;;;;;;;;22.54;41.57;99901.53;4430496;32;34079;-82
2023/05/31 07:15:27;;;;;;;;;;;;;;;22.91;41.47;99898.44;4430136;32;34155;-80
2023/05/31 07:17:56;;;;;;;;;;;;;;;22.96;40.54;99910.44;4435864;32;33773;-80
2023/05/31 07:20:26;;;;;;;;;;;;;;;23.31;40.90;99901.31;4430083;32;34930;-82
2023/05/31 07:22:55;;;;;;;;;;;;;;;23.17;40.25;99904.78;4430185;32;35305;-80
2023/05/31 07:25:24;;;;;;;;;;;;;;;22.74;41.81;99902.13;4438516;32;33188;-81
2023/05/31 07:27:54;;;;;;;;;;;;;;;23.07;41.85;99903.66;4436478;32;33127;-79
2023/05/31 07:30:23;;;;;;;;;;;;;;;23.49;40.38;99904.59;4442717;32;33978;-81
2023/05/31 07:32:54;;;;;;;;;;;;;;;23.55;39.89;99912.97;4436408;32;34564;-82
2023/05/31 07:35:23;;;;;;;;;;;;;;;22.29;41.11;99899.44;4435004;32;33656;-82
2023/05/31 07:37:52;;;;;;;;;;;;;;;22.29;41.86;99895.97;4432144;32;33676;-81
2023/05/31 07:40:20;;;;;;;;;;;;;;;22.42;42.06;99893.44;4442414;32;34114;-80
2023/05/31 07:42:49;;;;;;;;;;;;;;;22.54;42.10;99901.53;4445116;32;34091;-80
2023/05/31 07:45:18;;;;;;;;;;;;;;;22.85;41.18;99902.31;4439988;32;33274;-82
2023/05/31 07:47:48;;;;;;;;;;;;;;;23.24;40.71;99900.81;4433837;32;33585;-81
2023/05/31 07:50:18;;;;;;;;;;;;;;;23.17;40.75;99899.50;4444221;32;35135;-83
2023/05/31 07:52:49;;;;;;;;;;;;;;;23.32;41.58;99901.22;4435820;32;35181;-82
2023/05/31 07:55:18;;;;;;;;;;;;;;;23.35;41.68;99901.00;4430404;32;33921;-81
2023/05/31 07:57:47;;;;;;;;;;;;;;;23.73;40.80;99891.59;4433817;32;34583;-81
2023/05/31 08:00:16;;;;;;;;;;;;;;;23.74;40.77;99899.44;4432517;32;34863;-81
2023/05/31 08:02:46;;;;;;;;;;;;;;;23.63;40.28;99908.06;4439537;32;33854;-81
2023/05/31 08:05:15;;;;;;;;;;;;;;;24.29;39.46;99900.28;4428220;32;31702;-82
2023/05/31 08:07:45;;;;;;;;;;;;;;;24.48;39.12;99898.12;4434431;32;33465;-83
2023/05/31 08:10:13;;;;;;;;;;;;;;;24.53;38.25;99900.47;4438740;32;33911;-83
2023/05/31 08:12:42;;;;;;;;;;;;;;;24.09;38.24;99904.25;4446281;32;33883;-83
2023/05/31 08:15:11;;;;;;;;;;;;;;;24.05;38.27;99903.59;4439328;32;33327;-79
2023/05/31 08:17:40;;;;;;;;;;;;;;;23.97;37.29;99895.31;4439649;32;34080;-81
2023/05/31 08:20:10;;;;;;;;;;;;;;;24.34;37.55;99889.38;4437116;32;34272;-82
2023/05/31 08:22:38;;;;;;;;;;;;;;;24.43;37.81;99894.06;4431818;32;34632;-82
2023/05/31 08:25:12;;;;;;;;;;;;;;;24.26;37.66;99896.03;4436199;32;33577;-81
2023/05/31 08:27:41;;;;;;;;;;;;;;;24.51;37.03;99897.06;4433683;32;33888;-82
2023/05/31 08:30:10;;;;;;;;;;;;;;;23.96;37.10;99903.34;4431820;32;34735;-83
2023/05/31 08:32:40;;;;;;;;;;;;;;;24.74;36.92;99899.94;4431676;32;34094;-81
2023/05/31 08:35:10;;;;;;;;;;;;;;;24.73;37.19;99904.41;4436785;32;33201;-81
2023/05/31 08:37:40;;;;;;;;;;;;;;;24.91;37.03;99892.53;4420842;32;33365;-81
2023/05/31 08:40:10;;;;;;;;;;;;;;;24.18;37.47;99902.78;4430578;32;34002;-81
2023/05/31 08:42:41;;;;;;;;;;;;;;;24.49;36.24;99901.63;4431277;32;34817;-81
2023/05/31 08:45:10;;;;;;;;;;;;;;;25.29;35.76;99893.47;4431822;32;33608;-83
2023/05/31 08:47:40;;;;;;;;;;;;;;;24.83;37.49;99909.94;4436686;32;33794;-81
2023/05/31 08:50:09;;;;;;;;;;;;;;;24.85;35.35;99894.75;4431638;32;33315;-82
2023/05/31 08:52:38;;;;;;;;;;;;;;;24.35;36.78;99896.38;4444471;32;34205;-81
2023/05/31 08:55:08;;;;;;;;;;;;;;;24.82;35.50;99895.81;4446114;32;33567;-81
2023/05/31 08:57:38;;;;;;;;;;;;;;;24.27;36.72;99902.19;4451649;32;34509;-81
2023/05/31 09:00:10;;;;;;;;;;;;;;;24.44;36.87;99903.72;4447011;32;34190;-81
2023/05/31 09:02:40;;;;;;;;;;;;;;;24.91;36.10;99892.53;4446875;32;33958;-82
2023/05/31 09:05:10;;;;;;;;;;;;;;;25.22;36.75;99893.03;4446997;32;33552;-83
2023/05/31 09:07:39;;;;;;;;;;;;;;;25.80;35.85;99888.00;4440837;32;34959;-82
2023/05/31 09:10:09;;;;;;;;;;;;;;;25.28;35.93;99884.66;4436603;32;34258;-82
2023/05/31 09:12:39;;;;;;;;;;;;;;;25.88;35.84;99887.47;4431166;32;35264;-82
2023/05/31 09:15:08;;;;;;;;;;;;;;;25.91;35.33;99880.13;4430821;32;32631;-83
2023/05/31 09:17:37;;;;;;;;;;;;;;;26.10;35.10;99881.41;4433222;32;34462;-81
2023/05/31 09:20:05;;;;;;;;;;;;;;;26.33;34.79;99877.84;4436653;32;34572;-81
2023/05/31 09:22:34;;;;;;;;;;;;;;;26.24;35.54;99883.00;4430714;32;34658;-81
2023/05/31 09:25:06;;;;;;;;;;;;;;;25.51;35.22;99892.78;4431303;32;33752;-83
2023/05/31 09:27:36;;;;;;;;;;;;;;;25.80;35.13;99885.31;4431263;32;33848;-81
2023/05/31 09:30:08;;;;;;;;;;;;;;;26.16;33.77;99888.91;4431494;32;34059;-82
2023/05/31 09:32:37;;;;;;;;;;;;;;;25.63;35.39;99889.22;4437899;32;34237;-82
2023/05/31 09:35:12;;;;;;;;;;;;;;;25.50;34.77;99869.84;4439125;32;34089;-82
2023/05/31 09:37:45;;;;;;;;;;;;;;;25.46;35.68;99879.81;4446776;32;33674;-82
2023/05/31 09:40:14;;;;;;;;;;;;;;;26.21;34.60;99865.47;4438478;32;34976;-80
2023/05/31 09:42:52;;;;;;;;;;;;;;;26.07;35.79;99877.19;4436644;32;34493;-82
2023/05/31 09:45:23;;;;;;;;;;;;;;;26.71;35.57;99884.75;4435667;32;33356;-81
2023/05/31 09:47:52;;;;;;;;;;;;;;;26.01;34.33;99890.06;4431975;32;35313;-82
2023/05/31 09:50:21;;;;;;;;;;;;;;;26.55;33.97;99882.41;4431209;32;35174;-81
2023/05/31 09:52:52;;;;;;;;;;;;;;;26.95;32.27;99875.81;4431702;32;34445;-80
2023/05/31 09:55:21;;;;;;;;;;;;;;;26.42;32.54;99878.13;4436438;32;33279;-81
2023/05/31 09:57:52;;;;;;;;;;;;;;;26.72;33.21;99875.78;4431241;32;34893;-82
2023/05/31 10:00:21;;;;;;;;;;;;;;;26.69;33.46;99877.84;4431229;32;33916;-81
2023/05/31 10:02:51;;;;;;;;;;;;;;;26.84;33.32;99883.78;4436220;32;34835;-83
2023/05/31 10:05:22;;;;;;;;;;;;;;;26.46;32.64;99872.47;4442777;32;34401;-81
2023/05/31 10:07:53;;;;;;;;;;;;;;;26.90;32.88;99870.84;4440020;32;32851;-82
2023/05/31 10:10:22;;;;;;;;;;;;;;;26.81;32.55;99875.06;4438573;32;34377;-82
2023/05/31 10:12:51;;;;;;;;;;;;;;;26.67;33.50;99872.63;4441805;32;34107;-81
2023/05/31 10:15:22;;;;;;;;;;;;;;;26.95;33.21;99873.16;4438204;32;33177;-81
2023/05/31 10:17:54;;;;;;;;;;;;;;;26.96;33.61;99872.19;4443224;32;34189;-81
2023/05/31 10:20:26;;;;;;;;;;;;;;;27.50;31.51;99876.78;4441538;32;34793;-82
2023/05/31 10:22:55;;;;;;;;;;;;;;;27.53;33.14;99868.53;4443467;32;34419;-82
2023/05/31 10:25:25;;;;;;;;;;;;;;;27.64;33.51;99863.19;4430766;32;33753;-82
2023/05/31 10:27:55;;;;;;;;;;;;;;;27.31;32.39;99866.75;4431833;32;34818;-83
2023/05/31 10:30:26;;;;;;;;;;;;;;;26.88;33.79;99866.63;4436089;32;35185;-81
2023/05/31 10:33:01;;;;;;;;;;;;;;;27.48;32.36;99860.06;4439724;32;33798;-82
2023/05/31 10:35:30;;;;;;;;;;;;;;;27.35;31.75;99870.87;4431931;32;32950;-81
2023/05/31 10:37:59;;;;;;;;;;;;;;;27.97;30.55;99864.06;4433313;32;33638;-82
2023/05/31 10:40:31;;;;;;;;;;;;;;;28.20;30.57;99861.31;4447616;32;34292;-80
2023/05/31 10:43:01;;;;;;;;;;;;;;;27.77;31.15;99864.84;4443606;32;34493;-82
2023/05/31 10:45:30;;;;;;;;;;;;;;;27.34;31.51;99865.66;4446286;32;34230;-81
2023/05/31 10:48:02;;;;;;;;;;;;;;;28.03;30.53;99855.56;4446267;32;33468;-83
2023/05/31 10:50:31;;;;;;;;;;;;;;;28.66;30.17;99847.56;4439850;32;35138;-81
2023/05/31 10:53:09;;;;;;;;;;;;;;;28.37;30.48;99852.72;4440138;32;34384;-83
2023/05/31 10:55:41;;;;;;;;;;;;;;;28.16;32.35;99860.69;4432568;32;34053;-81
2023/05/31 10:58:24;;;;;;;;;;;;;;;27.93;31.35;99859.09;4430402;32;33947;-84
2023/05/31 11:00:54;;;;;;;;;;;;;;;28.95;30.18;99852.22;4433372;32;34867;-84
2023/05/31 11:03:25;;;;;;;;;;;;;;;29.35;30.09;99848.69;4437727;32;34239;-82
2023/05/31 11:05:56;;;;;;;;;;;;;;;29.17;28.81;99840.50;4440753;32;33279;-82
2023/05/31 11:08:26;;;;;;;;;;;;;;;29.77;27.63;99853.88;4435457;32;35025;-81
2023/05/31 11:11:10;;;;;;;;;;;;;;;29.67;27.88;99847.66;4436777;32;34216;-81
2023/05/31 11:14:07;;;;;;;;;;;;;;;28.20;30.29;99850.63;4434998;32;34800;-83
2023/05/31 11:16:57;;;;;;;;;;;;;;;28.73;29.77;99842.56;4353875;32;33823;-81
2023/05/31 11:19:28;;;;;;;;;;;;;;;29.27;28.01;99837.88;4357998;32;33541;-82
2023/05/31 11:21:59;;;;;;;;;;;;;;;29.47;29.68;99836.06;4350871;32;34659;-81
2023/05/31 11:24:28;;;;;;;;;;;;;;;29.19;28.05;99837.69;4354440;32;33902;-82
2023/05/31 11:26:57;;;;;;;;;;;;;;;29.59;27.15;99834.13;4357491;32;33855;-83
2023/05/31 11:29:27;;;;;;;;;;;;;;;28.86;28.93;99827.16;4356956;32;34476;-82
2023/05/31 11:31:59;;;;;;;;;;;;;;;29.24;28.67;99830.12;4366712;32;34431;-81
2023/05/31 11:34:30;;;;;;;;;;;;;;;28.80;29.18;99827.69;4356559;32;34024;-81
2023/05/31 11:37:00;;;;;;;;;;;;;;;28.90;29.71;99823.25;4356815;32;33708;-81
2023/05/31 11:39:29;;;;;;;;;;;;;;;28.32;30.30;99828.25;4340907;32;33819;-82
2023/05/31 11:41:58;;;;;;;;;;;;;;;27.36;31.36;99823.75;4351622;32;33840;-81
2023/05/31 11:44:28;;;;;;;;;;;;;;;27.73;30.83;99820.75;4356953;32;34005;-82
2023/05/31 11:47:00;;;;;;;;;;;;;;;28.50;29.45;99820.50;4351586;32;32688;-83
2023/05/31 11:49:32;;;;;;;;;;;;;;;28.25;30.64;99816.41;4351823;32;33880;-83
2023/05/31 11:52:02;;;;;;;;;;;;;;;27.89;30.95;99823.84;4364509;32;33864;-82
2023/05/31 11:54:32;;;;;;;;;;;;;;;28.80;29.25;99810.81;4411544;32;34441;-81
2023/05/31 11:57:02;;;;;;;;;;;;;;;27.64;30.64;99817.87;4405152;32;33146;-81
2023/05/31 11:59:32;;;;;;;;;;;;;;;28.50;29.69;99813.34;4413410;32;33808;-82
2023/05/31 12:02:01;;;;;;;;;;;;;;;28.35;29.14;99819.97;4414088;32;33557;-83
2023/05/31 12:04:36;;;;;;;;;;;;;;;28.03;29.60;99814.72;4412920;32;34864;-81
2023/05/31 12:07:05;;;;;;;;;;;;;;;29.04;27.58;99805.97;4416168;32;33231;-83
2023/05/31 12:09:34;;;;;;;;;;;;;;;29.45;27.22;99795.28;4398122;32;34041;-82
2023/05/31 12:12:05;;;;;;;;;;;;;;;28.41;28.89;99802.59;4403607;32;33656;-82
2023/05/31 12:14:33;;;;;;;;;;;;;;;27.80;30.14;99813.94;4411157;32;33561;-81
2023/05/31 12:17:03;;;;;;;;;;;;;;;28.66;28.61;99804.03;4447964;32;33224;-81
2023/05/31 12:19:33;;;;;;;;;;;;;;;28.72;29.61;99801.66;4437810;32;33848;-81
2023/05/31 12:22:02;;;;;;;;;;;;;;;28.34;29.43;99806.75;4442101;32;34003;-83
2023/05/31 12:24:31;;;;;;;;;;;;;;;28.44;29.47;99795.19;4444107;32;34505;-82
2023/05/31 12:26:59;;;;;;;;;;;;;;;28.97;28.63;99796.84;4438664;32;33621;-82
2023/05/31 12:29:28;;;;;;;;;;;;;;;28.34;29.63;99798.75;4440372;32;34131;-83
2023/05/31 12:32:03;;;;;;;;;;;;;;;28.90;28.90;99793.88;4437800;32;34865;-82
2023/05/31 12:34:35;;;;;;;;;;;;;;;29.27;28.66;99795.13;4417124;32;33705;-83
2023/05/31 12:37:05;;;;;;;;;;;;;;;30.10;26.19;99785.72;4439932;32;34274;-83
2023/05/31 12:39:34;;;;;;;;;;;;;;;29.59;26.92;99786.00;4450208;32;34664;-81
2023/05/31 12:42:03;;;;;;;;;;;;;;;30.20;25.97;99789.25;4444868;32;33999;-81
2023/05/31 12:44:32;;;;;;;;;;;;;;;30.12;26.14;99782.91;4439007;32;35141;-81
2023/05/31 12:47:02;;;;;;;;;;;;;;;30.20;25.26;99791.91;4429079;32;34144;-82
2023/05/31 12:49:31;;;;;;;;;;;;;;;29.73;26.42;99783.78;4428889;32;33621;-81
2023/05/31 12:52:02;;;;;;;;;;;;;;;30.17;25.98;99781.47;4440829;32;34057;-82
2023/05/31 12:54:31;;;;;;;;;;;;;;;29.45;26.74;99785.41;4435538;32;34053;-81
2023/05/31 12:57:01;;;;;;;;;;;;;;;29.42;27.14;99782.19;4433823;32;33312;-80
2023/05/31 12:59:30;;;;;;;;;;;;;;;28.54;27.64;99779.25;4438025;32;34627;-81
2023/05/31 13:02:00;;;;;;;;;;;;;;;29.58;26.16;99773.63;4444079;32;35096;-81